Time;durP1;ratioP1;P1;durP2;ratioP2;P2;SDS_P1;SDS_P2;PMS_P1;PMS_P2;Temp;Humidity;BMP_temperature;BMP_pressure;BME280_temperature;BME280_humidity;BME280_pressure;Samples;Min_cycle;Max_cycle;Signal;HPM_P1;HPM_P2
2022/05/05 00:00:53;;;;;;;2.80;1.48;;;13.20;59.60;;;;;;5103746;28;20031;-65
2022/05/05 00:03:19;;;;;;;2.92;1.58;;;13.20;60.00;;;;;;5089024;28;20110;-65
2022/05/05 00:05:45;;;;;;;1.33;1.17;;;13.20;60.00;;;;;;5089888;28;20111;-65
2022/05/05 00:08:11;;;;;;;1.40;1.30;;;13.20;60.40;;;;;;5117104;27;20329;-65
2022/05/05 00:16:08;;;;;;;3.10;1.67;;;13.20;60.50;;;;;;5086572;27;20047;-65
2022/05/05 00:18:34;;;;;;;4.18;1.85;;;13.20;60.40;;;;;;5120605;27;20031;-65
2022/05/05 00:21:00;;;;;;;1.77;1.38;;;13.20;60.60;;;;;;5118807;27;20378;-62
2022/05/05 00:23:26;;;;;;;2.25;1.33;;;13.20;60.80;;;;;;5097505;27;20032;-62
2022/05/05 00:25:52;;;;;;;2.20;1.42;;;13.20;61.00;;;;;;5097940;28;20043;-62
2022/05/05 00:28:18;;;;;;;2.47;1.63;;;13.20;61.10;;;;;;5120475;27;20028;-62
2022/05/05 00:30:43;;;;;;;1.45;1.33;;;13.20;61.20;;;;;;5106356;27;20501;-61
2022/05/05 00:33:09;;;;;;;4.78;1.55;;;13.10;61.20;;;;;;5119725;27;20276;-61
2022/05/05 00:35:34;;;;;;;5.40;1.95;;;13.20;61.40;;;;;;5120192;27;20119;-61
2022/05/05 00:38:00;;;;;;;2.00;1.60;;;13.10;61.40;;;;;;5116682;27;20050;-61
2022/05/05 00:40:26;;;;;;;3.22;2.25;;;13.10;61.40;;;;;;5101788;28;20055;-61
2022/05/05 00:42:52;;;;;;;1.40;1.30;;;13.10;61.60;;;;;;5110416;28;20028;-62
2022/05/05 00:45:18;;;;;;;2.60;1.52;;;13.10;61.80;;;;;;5122948;28;20055;-65
2022/05/05 00:47:44;;;;;;;3.30;1.67;;;13.00;61.80;;;;;;5116638;28;20027;-62
2022/05/05 00:50:11;;;;;;;2.65;1.67;;;13.00;61.90;;;;;;5121710;28;20110;-62
2022/05/05 00:52:37;;;;;;;2.03;1.38;;;13.00;62.00;;;;;;5122687;28;20071;-62
2022/05/05 00:55:03;;;;;;;2.80;1.80;;;13.00;62.10;;;;;;5120210;28;20434;-62
2022/05/05 00:57:29;;;;;;;2.33;1.55;;;13.00;62.20;;;;;;5127324;28;20504;-61
2022/05/05 00:59:55;;;;;;;1.52;1.33;;;12.90;62.30;;;;;;5122608;28;20117;-61
2022/05/05 01:02:22;;;;;;;1.20;0.90;;;12.90;62.40;;;;;;5119123;28;20034;-64
2022/05/05 01:04:48;;;;;;;2.78;1.83;;;12.90;62.60;;;;;;5111161;28;20036;-64
2022/05/05 01:07:18;;;;;;;2.10;1.55;;;12.90;62.70;;;;;;5114437;28;20024;-64
2022/05/05 01:09:44;;;;;;;2.65;1.70;;;12.80;62.80;;;;;;5122937;28;20020;-64
2022/05/05 01:12:10;;;;;;;5.25;1.70;;;12.80;63.20;;;;;;5125237;28;20409;-64
2022/05/05 01:14:36;;;;;;;5.80;1.67;;;12.80;63.30;;;;;;5126284;28;20110;-61
2022/05/05 01:17:02;;;;;;;2.85;1.90;;;12.70;63.30;;;;;;5128815;28;20530;-61
2022/05/05 01:19:28;;;;;;;1.55;1.35;;;12.70;63.50;;;;;;5125907;27;20043;-60
2022/05/05 01:21:57;;;;;;;3.20;1.58;;;12.60;63.30;;;;;;5113273;27;20538;-62
2022/05/05 01:28:10;;;;;;;1.85;1.58;;;12.60;63.40;;;;;;5124632;27;20469;-61
2022/05/05 01:29:54;;;;;;;4.18;1.75;;;12.50;63.60;;;;;;5113073;27;20419;-61
2022/05/05 01:32:20;;;;;;;5.05;1.75;;;12.50;63.70;;;;;;5125765;27;20027;-64
2022/05/05 01:34:45;;;;;;;8.52;2.25;;;12.40;63.80;;;;;;5100763;28;20391;-64
2022/05/05 01:37:11;;;;;;;2.55;1.55;;;12.40;63.90;;;;;;5090423;28;20084;-65
2022/05/05 01:39:37;;;;;;;3.75;1.83;;;12.30;63.90;;;;;;5110691;27;20102;-61
2022/05/05 01:42:03;;;;;;;2.55;1.65;;;12.30;64.10;;;;;;5117745;27;20126;-61
2022/05/05 01:44:28;;;;;;;1.65;1.35;;;12.20;64.00;;;;;;5101736;28;20134;-61
2022/05/05 01:46:54;;;;;;;3.00;1.58;;;12.20;64.20;;;;;;5111605;28;20043;-61
2022/05/05 01:49:19;;;;;;;5.32;1.63;;;12.10;64.40;;;;;;5120545;27;20031;-61
2022/05/05 01:51:45;;;;;;;1.33;1.23;;;12.10;64.50;;;;;;5111823;28;20028;-61
2022/05/05 01:54:11;;;;;;;3.10;2.03;;;12.00;64.70;;;;;;5120076;27;20067;-64
2022/05/05 01:56:37;;;;;;;1.38;1.27;;;12.00;64.80;;;;;;5112045;28;20043;-65
2022/05/05 01:59:02;;;;;;;3.53;2.22;;;12.00;64.90;;;;;;5109105;27;20036;-64
2022/05/05 02:01:28;;;;;;;2.88;1.80;;;11.90;65.00;;;;;;5112401;28;20121;-64
2022/05/05 02:03:54;;;;;;;2.50;1.77;;;11.90;65.10;;;;;;5109243;28;20092;-61
2022/05/05 02:06:19;;;;;;;1.85;1.38;;;11.80;65.20;;;;;;5102388;27;20059;-60
2022/05/05 02:08:45;;;;;;;2.65;1.73;;;11.80;65.40;;;;;;5124354;27;20035;-60
2022/05/05 02:11:11;;;;;;;2.40;1.48;;;11.80;65.50;;;;;;5113239;27;20070;-61
2022/05/05 02:13:36;;;;;;;2.63;1.63;;;11.70;65.60;;;;;;5096868;27;20027;-64
2022/05/05 02:16:02;;;;;;;2.00;1.63;;;11.70;65.80;;;;;;5105995;28;20436;-64
2022/05/05 02:18:28;;;;;;;5.65;1.40;;;11.60;65.80;;;;;;5113623;27;20028;-60
2022/05/05 02:20:54;;;;;;;2.10;1.63;;;11.60;65.90;;;;;;5116241;27;20020;-60
2022/05/05 02:23:20;;;;;;;2.88;1.15;;;11.60;65.90;;;;;;5103385;27;20111;-64
2022/05/05 02:25:45;;;;;;;2.53;1.40;;;11.50;65.90;;;;;;5098697;28;20027;-64
2022/05/05 02:28:11;;;;;;;2.22;1.65;;;11.50;65.90;;;;;;5117020;27;20040;-64
2022/05/05 02:30:37;;;;;;;2.05;1.50;;;11.50;66.00;;;;;;5116959;27;20027;-64
2022/05/05 02:33:03;;;;;;;2.30;1.67;;;11.40;66.60;;;;;;5110117;28;20349;-64
2022/05/05 02:35:29;;;;;;;4.10;1.73;;;11.40;66.00;;;;;;5110531;28;20024;-64
2022/05/05 02:40:39;;;;;;;2.40;1.27;;;11.30;66.10;;;;;;5114581;27;20510;-64
2022/05/05 02:43:06;;;;;;;4.00;1.75;;;11.30;66.10;;;;;;5117817;27;20023;-64
2022/05/05 02:45:32;;;;;;;2.08;1.60;;;11.30;66.30;;;;;;5112782;27;20048;-64
2022/05/05 02:47:58;;;;;;;1.75;1.60;;;11.20;66.40;;;;;;5111591;28;20080;-64
2022/05/05 02:50:24;;;;;;;4.13;1.60;;;11.20;66.60;;;;;;5102805;27;20025;-64
2022/05/05 02:52:50;;;;;;;3.30;1.35;;;11.10;66.60;;;;;;5109669;28;20500;-64
2022/05/05 02:55:16;;;;;;;4.55;1.83;;;11.10;66.80;;;;;;5110433;27;20077;-64
2022/05/05 02:57:42;;;;;;;2.22;1.63;;;11.00;66.70;;;;;;5091238;28;20123;-61
2022/05/05 03:00:13;;;;;;;3.42;1.70;;;11.00;66.70;;;;;;5111468;27;20555;-60
2022/05/05 03:02:42;;;;;;;4.15;2.05;;;11.00;66.70;;;;;;5110049;28;20027;-60
2022/05/05 03:05:13;;;;;;;1.90;1.45;;;11.00;66.80;;;;;;5110239;27;20121;-61
2022/05/05 03:07:39;;;;;;;1.50;1.40;;;11.00;66.90;;;;;;5109517;28;20035;-61
2022/05/05 03:10:05;;;;;;;1.85;1.38;;;10.90;66.90;;;;;;5109743;28;20496;-61
2022/05/05 03:12:31;;;;;;;1.40;1.15;;;10.90;67.00;;;;;;5120525;27;20027;-61
2022/05/05 03:14:57;;;;;;;3.00;1.73;;;10.80;67.10;;;;;;5097892;27;20019;-61
2022/05/05 03:17:23;;;;;;;1.20;1.13;;;10.80;67.10;;;;;;5102885;27;20093;-61
2022/05/05 03:19:48;;;;;;;4.03;1.77;;;10.80;67.20;;;;;;5116562;27;20114;-61
2022/05/05 03:22:14;;;;;;;1.55;1.45;;;10.80;67.40;;;;;;5113436;27;20039;-61
2022/05/05 03:24:40;;;;;;;1.75;1.65;;;10.70;67.40;;;;;;5090253;28;20038;-64
2022/05/05 03:27:05;;;;;;;1.83;1.23;;;10.70;67.50;;;;;;5108575;27;20041;-64
2022/05/05 03:29:32;;;;;;;3.80;2.15;;;10.70;67.50;;;;;;5108970;28;20034;-64
2022/05/05 03:31:58;;;;;;;2.20;1.35;;;10.60;67.50;;;;;;5112115;27;20024;-64
2022/05/05 03:34:23;;;;;;;2.95;1.40;;;10.60;67.60;;;;;;5106497;28;20482;-64
2022/05/05 03:36:49;;;;;;;2.63;1.55;;;10.60;67.70;;;;;;5104554;27;20540;-64
2022/05/05 03:39:15;;;;;;;1.30;1.00;;;10.60;67.70;;;;;;5112609;27;20054;-64
2022/05/05 03:41:40;;;;;;;2.28;1.42;;;10.50;67.60;;;;;;5103377;27;20489;-63
2022/05/05 03:44:07;;;;;;;5.03;1.92;;;10.50;67.70;;;;;;5107679;27;20031;-61
2022/05/05 03:46:33;;;;;;;3.38;1.40;;;10.50;67.80;;;;;;5127974;27;20122;-61
2022/05/05 03:48:59;;;;;;;4.57;1.88;;;10.40;67.90;;;;;;5124086;27;20106;-61
2022/05/05 03:51:25;;;;;;;2.30;1.73;;;10.40;68.10;;;;;;5122138;27;20106;-61
2022/05/05 03:53:51;;;;;;;2.78;1.40;;;10.40;68.10;;;;;;5119531;27;20831;-61
2022/05/05 03:56:17;;;;;;;4.38;1.80;;;10.40;68.10;;;;;;5107713;27;20416;-64
2022/05/05 03:58:43;;;;;;;2.65;2.03;;;10.30;68.10;;;;;;5120270;27;20043;-61
2022/05/05 04:01:08;;;;;;;4.15;1.95;;;10.30;68.10;;;;;;5122944;27;20077;-60
2022/05/05 04:03:36;;;;;;;5.30;1.48;;;10.30;68.20;;;;;;5126254;27;20103;-64
2022/05/05 04:06:06;;;;;;;3.15;0.77;;;10.30;68.20;;;;;;5123672;27;20474;-61
2022/05/05 04:08:33;;;;;;;3.67;1.77;;;10.20;68.30;;;;;;5109488;27;20556;-61
2022/05/05 04:11:02;;;;;;;2.38;1.20;;;10.20;68.30;;;;;;5124484;27;20094;-64
2022/05/05 04:13:28;;;;;;;4.40;1.42;;;10.20;68.50;;;;;;5106135;28;20055;-64
2022/05/05 04:15:54;;;;;;;4.00;1.33;;;10.20;68.60;;;;;;5120397;27;20078;-64
2022/05/05 04:18:20;;;;;;;3.80;1.23;;;10.10;69.20;;;;;;5121827;27;20581;-64
2022/05/05 04:20:47;;;;;;;2.38;1.38;;;10.20;68.80;;;;;;5107683;27;20065;-64
2022/05/05 04:23:13;;;;;;;2.58;1.45;;;10.10;69.00;;;;;;5123517;27;20480;-64
2022/05/05 04:25:43;;;;;;;1.10;0.90;;;10.10;69.10;;;;;;5124725;27;20525;-64
2022/05/05 04:28:10;;;;;;;3.15;1.88;;;10.10;69.30;;;;;;5125726;27;20035;-64
2022/05/05 04:30:37;;;;;;;3.03;1.05;;;10.10;69.40;;;;;;5123719;27;20034;-64
2022/05/05 04:33:03;;;;;;;4.32;1.95;;;10.10;69.60;;;;;;5103059;27;20033;-61
2022/05/05 04:35:30;;;;;;;1.80;1.25;;;10.10;69.80;;;;;;5123647;27;20023;-61
2022/05/05 04:37:56;;;;;;;1.98;1.55;;;10.10;69.90;;;;;;5124192;27;20031;-64
2022/05/05 04:40:21;;;;;;;6.18;1.55;;;10.10;70.10;;;;;;5108205;28;20441;-64
2022/05/05 04:42:47;;;;;;;3.28;1.77;;;10.10;70.30;;;;;;5124804;28;20115;-64
2022/05/05 04:45:13;;;;;;;2.15;1.63;;;10.10;70.50;;;;;;5123668;28;20077;-65
2022/05/05 04:47:38;;;;;;;5.50;1.67;;;10.20;70.70;;;;;;5124807;28;20023;-61
2022/05/05 04:50:05;;;;;;;1.48;1.35;;;10.10;70.70;;;;;;5122916;28;20142;-61
2022/05/05 04:52:32;;;;;;;1.98;1.23;;;10.20;70.90;;;;;;5120175;27;20031;-61
2022/05/05 04:54:58;;;;;;;1.60;1.20;;;10.20;71.10;;;;;;5127287;27;20027;-65
2022/05/05 04:57:24;;;;;;;2.30;1.88;;;10.20;71.30;;;;;;5124851;27;20035;-64
2022/05/05 04:59:50;;;;;;;2.60;1.40;;;10.20;71.40;;;;;;5131801;27;20035;-65
2022/05/05 05:02:15;;;;;;;1.80;1.20;;;10.20;71.50;;;;;;5129677;27;20031;-64
2022/05/05 05:04:41;;;;;;;2.10;1.23;;;10.30;71.60;;;;;;5127627;27;20428;-64
2022/05/05 05:07:07;;;;;;;2.53;2.05;;;10.30;71.70;;;;;;5106119;27;20046;-64
2022/05/05 05:09:34;;;;;;;4.00;1.90;;;10.30;71.90;;;;;;5120304;27;20159;-64
2022/05/05 05:12:00;;;;;;;2.03;1.35;;;10.30;72.00;;;;;;5117623;27;20027;-64
2022/05/05 05:14:26;;;;;;;1.92;1.25;;;10.30;72.20;;;;;;5110262;27;20023;-64
2022/05/05 05:16:52;;;;;;;4.18;1.50;;;10.30;72.30;;;;;;5098046;27;20434;-64
2022/05/05 05:19:18;;;;;;;3.55;1.90;;;10.30;72.40;;;;;;5114224;27;20026;-64
2022/05/05 05:21:43;;;;;;;3.80;2.10;;;10.30;72.50;;;;;;5112405;27;20032;-61
2022/05/05 05:24:09;;;;;;;3.40;2.08;;;10.40;72.60;;;;;;5113807;27;20085;-61
2022/05/05 05:26:35;;;;;;;1.95;1.33;;;10.40;72.60;;;;;;5073540;28;20025;-61
2022/05/05 05:29:01;;;;;;;2.20;1.52;;;10.40;72.60;;;;;;5106358;28;20031;-64
2022/05/05 05:31:28;;;;;;;1.95;1.65;;;10.50;72.70;;;;;;5113366;28;20024;-64
2022/05/05 05:33:54;;;;;;;2.38;2.05;;;10.50;72.50;;;;;;5112387;28;20377;-64
2022/05/05 05:36:20;;;;;;;3.13;1.75;;;10.60;72.60;;;;;;5113237;27;20119;-64
2022/05/05 05:38:46;;;;;;;2.13;1.70;;;10.60;72.80;;;;;;5112798;28;20026;-64
2022/05/05 05:41:11;;;;;;;3.85;2.17;;;10.60;72.80;;;;;;5103523;28;20020;-64
2022/05/05 05:43:39;;;;;;;3.13;2.00;;;10.70;72.80;;;;;;5108341;28;20462;-61
2022/05/05 05:46:04;;;;;;;1.50;1.40;;;10.80;73.00;;;;;;5111381;27;20047;-61
2022/05/05 05:48:30;;;;;;;3.55;1.50;;;10.80;72.90;;;;;;5101764;27;20039;-61
2022/05/05 05:50:55;;;;;;;4.10;1.70;;;10.90;72.90;;;;;;5123783;27;20030;-61
2022/05/05 05:53:21;;;;;;;2.58;1.65;;;10.90;73.00;;;;;;5112120;28;20020;-61
2022/05/05 05:55:47;;;;;;;1.92;1.58;;;10.90;73.10;;;;;;5124332;27;20053;-61
2022/05/05 05:58:12;;;;;;;2.35;2.03;;;10.90;73.10;;;;;;5111257;28;20024;-62
2022/05/05 06:00:38;;;;;;;3.33;2.35;;;11.00;73.10;;;;;;5117080;27;20106;-60
2022/05/05 06:05:49;;;;;;;2.42;1.65;;;11.00;73.20;;;;;;5122148;27;20086;-61
2022/05/05 06:08:15;;;;;;;2.95;1.42;;;11.10;73.20;;;;;;5103326;28;20051;-62
2022/05/05 06:10:41;;;;;;;2.10;1.85;;;11.10;73.20;;;;;;5086998;28;20032;-61
2022/05/05 06:13:07;;;;;;;6.43;2.25;;;11.20;73.10;;;;;;5111625;28;20020;-61
2022/05/05 06:15:33;;;;;;;2.00;1.70;;;11.20;73.10;;;;;;5102516;27;20187;-62
2022/05/05 06:17:59;;;;;;;1.90;1.30;;;11.30;73.00;;;;;;5113126;27;20110;-61
2022/05/05 06:20:24;;;;;;;2.97;1.85;;;11.30;73.00;;;;;;5119237;27;20023;-62
2022/05/05 06:22:51;;;;;;;4.30;2.00;;;11.40;72.80;;;;;;5109032;27;20207;-61
2022/05/05 06:25:19;;;;;;;2.72;1.92;;;11.50;72.60;;;;;;5108575;28;20501;-62
2022/05/05 06:27:45;;;;;;;2.53;1.75;;;11.50;72.50;;;;;;5117932;27;20035;-61
2022/05/05 06:30:13;;;;;;;2.38;2.03;;;11.60;72.30;;;;;;5111740;27;20038;-61
2022/05/05 06:32:42;;;;;;;2.13;1.92;;;11.70;72.10;;;;;;5112514;27;20045;-60
2022/05/05 06:35:09;;;;;;;2.72;2.03;;;11.70;72.00;;;;;;5092919;27;20079;-60
2022/05/05 06:37:35;;;;;;;3.03;1.73;;;11.80;72.40;;;;;;5117199;27;20122;-61
2022/05/05 06:40:03;;;;;;;3.22;2.10;;;11.90;71.70;;;;;;5111703;28;20027;-60
2022/05/05 06:42:29;;;;;;;2.75;2.28;;;12.00;71.50;;;;;;5115187;27;20128;-60
2022/05/05 06:44:55;;;;;;;2.22;1.70;;;12.00;71.30;;;;;;5095241;27;20468;-61
2022/05/05 06:47:21;;;;;;;2.28;1.95;;;12.10;71.30;;;;;;5116001;27;20054;-61
2022/05/05 06:49:46;;;;;;;2.78;2.05;;;12.10;70.90;;;;;;5118867;27;20088;-60
2022/05/05 06:52:12;;;;;;;1.45;1.35;;;12.20;70.80;;;;;;5095219;28;20034;-60
2022/05/05 06:54:38;;;;;;;2.08;1.80;;;12.20;70.70;;;;;;5108953;28;20508;-59
2022/05/05 06:57:04;;;;;;;4.13;1.85;;;12.30;70.60;;;;;;5092198;28;20098;-61
2022/05/05 06:59:30;;;;;;;3.42;2.00;;;12.30;70.40;;;;;;5090585;27;20051;-58
2022/05/05 07:02:01;;;;;;;1.75;1.65;;;12.40;70.50;;;;;;5096889;27;20032;-58
2022/05/05 07:07:16;;;;;;;3.35;1.88;;;12.60;70.20;;;;;;5102278;27;20042;-62
2022/05/05 07:12:28;;;;;;;3.80;1.98;;;12.80;69.90;;;;;;5102590;27;20042;-60
2022/05/05 07:14:55;;;;;;;6.90;2.42;;;12.90;69.80;;;;;;5094175;27;20072;-59
2022/05/05 07:17:21;;;;;;;1.98;1.75;;;12.90;69.60;;;;;;5103604;27;20044;-59
2022/05/05 07:19:47;;;;;;;2.65;2.03;;;13.10;69.30;;;;;;5102070;28;20023;-59
2022/05/05 07:22:13;;;;;;;6.30;1.88;;;13.10;69.20;;;;;;5094955;27;20090;-59
2022/05/05 07:24:39;;;;;;;2.90;2.22;;;13.20;69.00;;;;;;5095968;27;20065;-60
2022/05/05 07:27:05;;;;;;;3.20;2.10;;;13.30;68.80;;;;;;5092700;27;20054;-62
2022/05/05 07:29:31;;;;;;;4.30;2.25;;;13.40;68.60;;;;;;5091100;28;20462;-59
2022/05/05 07:31:57;;;;;;;5.50;2.60;;;13.50;68.60;;;;;;5116632;27;20584;-59
2022/05/05 07:34:23;;;;;;;3.80;2.42;;;13.50;68.30;;;;;;5095924;28;20411;-60
2022/05/05 07:36:49;;;;;;;2.78;1.50;;;13.60;68.10;;;;;;5095893;28;20119;-64
2022/05/05 07:39:16;;;;;;;3.33;2.30;;;13.80;67.90;;;;;;5108690;28;20123;-59
2022/05/05 07:41:41;;;;;;;4.90;2.35;;;13.80;67.30;;;;;;5107651;28;20042;-59
2022/05/05 07:44:07;;;;;;;2.00;1.80;;;14.00;67.10;;;;;;5107947;28;20028;-62
2022/05/05 07:46:33;;;;;;;8.85;2.90;;;14.10;66.90;;;;;;5109271;28;20035;-60
2022/05/05 07:49:00;;;;;;;2.90;2.17;;;14.30;66.00;;;;;;5091688;28;20386;-60
2022/05/05 07:51:25;;;;;;;4.25;1.70;;;14.40;65.70;;;;;;5112081;27;20030;-60
2022/05/05 07:56:35;;;;;;;6.38;2.55;;;14.70;65.20;;;;;;5101805;27;20039;-59
2022/05/05 07:59:01;;;;;;;8.73;3.22;;;14.90;64.40;;;;;;5088210;28;20458;-60
2022/05/05 08:01:26;;;;;;;2.78;2.20;;;15.00;63.60;;;;;;5086583;28;20340;-59
2022/05/05 08:03:52;;;;;;;2.65;1.70;;;15.10;63.10;;;;;;5101119;28;20036;-59
2022/05/05 08:06:18;;;;;;;1.58;1.30;;;15.10;63.20;;;;;;5108127;27;20028;-60
2022/05/05 08:08:44;;;;;;;2.83;1.92;;;15.20;63.10;;;;;;5118334;27;20161;-59
2022/05/05 08:11:10;;;;;;;5.43;1.95;;;15.30;63.10;;;;;;5103648;28;20028;-62
2022/05/05 08:13:35;;;;;;;5.38;1.80;;;15.40;63.00;;;;;;5096788;28;20474;-62
2022/05/05 08:16:01;;;;;;;3.17;1.92;;;15.50;62.60;;;;;;5103415;27;20015;-63
2022/05/05 08:18:27;;;;;;;7.50;3.00;;;15.50;62.00;;;;;;5096151;28;20016;-63
2022/05/05 08:20:53;;;;;;;3.17;2.47;;;15.60;61.00;;;;;;5107048;27;20177;-60
2022/05/05 08:23:19;;;;;;;11.23;2.58;;;15.60;60.50;;;;;;5105377;27;20019;-63
2022/05/05 08:28:30;;;;;;;2.92;2.08;;;15.60;59.00;;;;;;5108602;28;20514;-63
2022/05/05 08:30:56;;;;;;;4.88;2.30;;;15.60;59.70;;;;;;5093334;28;20035;-63
2022/05/05 08:33:27;;;;;;;2.90;2.20;;;15.70;59.80;;;;;;5096630;28;20145;-62
2022/05/05 08:35:53;;;;;;;4.35;2.40;;;15.80;59.30;;;;;;5103679;27;20030;-62
2022/05/05 08:38:18;;;;;;;3.15;2.25;;;15.90;59.50;;;;;;5102517;27;20036;-59
2022/05/05 08:40:44;;;;;;;2.38;2.10;;;15.90;59.30;;;;;;5100515;28;20024;-59
2022/05/05 08:43:10;;;;;;;5.18;3.00;;;16.00;59.10;;;;;;5097676;28;20027;-60
2022/05/05 08:45:38;;;;;;;6.82;3.33;;;16.10;58.30;;;;;;5111386;28;20486;-59
2022/05/05 08:48:08;;;;;;;3.85;2.28;;;16.10;58.00;;;;;;5092731;28;20048;-62
2022/05/05 08:50:39;;;;;;;7.35;3.63;;;16.20;58.50;;;;;;5107829;28;20505;-62
2022/05/05 08:53:06;;;;;;;5.10;3.00;;;16.20;56.60;;;;;;5090891;28;20024;-62
2022/05/05 08:55:31;;;;;;;4.82;2.25;;;16.30;57.00;;;;;;5096636;28;21649;-59
2022/05/05 08:57:59;;;;;;;3.70;2.55;;;16.30;57.10;;;;;;5102839;28;20040;-59
2022/05/05 09:00:27;;;;;;;3.28;2.30;;;16.40;57.20;;;;;;5100537;28;20123;-59
2022/05/05 09:02:58;;;;;;;4.97;3.10;;;16.50;57.30;;;;;;5097918;28;20493;-59
2022/05/05 09:05:42;;;;;;;8.60;3.60;;;16.50;56.40;;;;;;5088572;28;20027;-62
2022/05/05 09:08:11;;;;;;;7.03;2.65;;;16.50;56.00;;;;;;5102628;28;20660;-60
2022/05/05 09:10:44;;;;;;;4.70;3.15;;;16.50;56.30;;;;;;5101443;28;20020;-60
2022/05/05 09:13:10;;;;;;;4.15;3.28;;;16.50;56.10;;;;;;5103919;28;20066;-60
2022/05/05 09:15:40;;;;;;;7.95;2.95;;;16.50;56.40;;;;;;5101510;28;20055;-60
2022/05/05 09:18:17;;;;;;;2.88;2.17;;;16.50;56.90;;;;;;5097185;28;20031;-63
2022/05/05 09:20:44;;;;;;;8.98;3.28;;;16.60;56.50;;;;;;5095662;28;20386;-63
2022/05/05 09:23:30;;;;;;;5.85;3.30;;;16.60;56.40;;;;;;5096799;28;20015;-63
2022/05/05 09:25:56;;;;;;;9.05;2.88;;;16.60;56.20;;;;;;5097205;28;20039;-63
2022/05/05 09:28:24;;;;;;;4.57;3.05;;;16.60;56.50;;;;;;5102965;28;20028;-63
2022/05/05 09:30:51;;;;;;;4.03;2.88;;;16.70;56.50;;;;;;5084189;28;20063;-63
2022/05/05 09:33:38;;;;;;;2.25;2.05;;;16.80;56.00;;;;;;5095437;28;20127;-60
2022/05/05 09:36:09;;;;;;;2.13;1.92;;;16.80;56.40;;;;;;5078392;28;20032;-63
2022/05/05 09:38:56;;;;;;;4.10;2.13;;;16.80;56.80;;;;;;5099509;28;20437;-63
2022/05/05 09:41:26;;;;;;;4.15;2.78;;;16.90;56.60;;;;;;5107498;28;20035;-62
2022/05/05 09:43:57;;;;;;;4.60;2.55;;;17.00;56.10;;;;;;5105772;27;20031;-63
2022/05/05 09:46:22;;;;;;;5.10;2.67;;;17.00;55.90;;;;;;5102368;27;20048;-63
2022/05/05 09:48:49;;;;;;;7.75;2.78;;;17.10;55.30;;;;;;5095393;28;20027;-62
2022/05/05 09:51:15;;;;;;;5.88;3.17;;;17.10;55.30;;;;;;5085159;27;20027;-63
2022/05/05 09:59:25;;;;;;;4.32;2.78;;;17.20;55.30;;;;;;5126250;27;20087;-60
2022/05/05 10:01:54;;;;;;;4.65;2.28;;;17.30;55.00;;;;;;5125010;27;20035;-63
2022/05/05 10:04:23;;;;;;;5.05;3.03;;;17.40;55.20;;;;;;5101497;27;20040;-63
2022/05/05 10:06:52;;;;;;;3.72;2.15;;;17.50;55.10;;;;;;5123118;27;20062;-63
2022/05/05 10:09:18;;;;;;;3.28;2.58;;;17.50;55.00;;;;;;5127379;27;20122;-63
2022/05/05 10:11:44;;;;;;;5.85;2.92;;;17.50;55.00;;;;;;5108180;27;20130;-63
2022/05/05 10:14:11;;;;;;;3.55;2.55;;;17.60;54.60;;;;;;5120700;27;20019;-63
2022/05/05 10:16:38;;;;;;;4.65;2.85;;;17.70;54.80;;;;;;5119658;27;20043;-63
2022/05/05 10:19:06;;;;;;;3.10;2.60;;;17.70;54.50;;;;;;5107214;27;20111;-63
2022/05/05 10:21:47;;;;;;;5.15;2.55;;;17.80;54.50;;;;;;5114566;27;20431;-63
2022/05/05 10:24:28;;;;;;;3.63;2.55;;;17.80;54.30;;;;;;5118137;27;20020;-60
2022/05/05 10:27:03;;;;;;;7.50;2.55;;;17.90;54.00;;;;;;5110250;27;20032;-60
2022/05/05 10:29:32;;;;;;;2.92;2.45;;;18.00;54.10;;;;;;5118317;27;20335;-60
2022/05/05 10:32:07;;;;;;;4.40;3.30;;;18.10;54.20;;;;;;5119003;27;20076;-59
2022/05/05 10:34:33;;;;;;;5.25;2.50;;;18.20;53.30;;;;;;5096397;28;20115;-62
2022/05/05 10:37:02;;;;;;;3.03;2.42;;;18.20;53.00;;;;;;5111719;27;20634;-62
2022/05/05 10:39:46;;;;;;;2.85;1.63;;;18.30;53.30;;;;;;5113919;27;20019;-60
2022/05/05 10:42:16;;;;;;;4.28;2.30;;;18.40;53.30;;;;;;5105954;28;20432;-60
2022/05/05 10:45:07;;;;;;;3.22;2.35;;;18.60;53.10;;;;;;5095702;28;20031;-60
2022/05/05 10:48:12;;;;;;;4.32;2.45;;;18.70;52.80;;;;;;5085494;28;20047;-63
2022/05/05 10:50:39;;;;;;;5.47;3.20;;;18.90;52.10;;;;;;5104693;28;20031;-63
2022/05/05 10:53:07;;;;;;;4.78;1.80;;;18.90;51.70;;;;;;5101919;28;20048;-63
2022/05/05 10:55:43;;;;;;;5.18;3.28;;;19.00;52.00;;;;;;5098883;27;20073;-60
2022/05/05 10:58:10;;;;;;;2.65;1.95;;;19.10;51.40;;;;;;5101455;27;20482;-63
2022/05/05 11:00:45;;;;;;;4.32;3.08;;;19.20;50.90;;;;;;5105888;28;20047;-60
2022/05/05 11:03:14;;;;;;;4.53;2.05;;;19.30;50.50;;;;;;5101190;28;20889;-59
2022/05/05 11:05:41;;;;;;;5.00;2.70;;;19.40;50.80;;;;;;5102245;28;20565;-59
2022/05/05 11:08:19;;;;;;;6.13;2.83;;;19.50;50.50;;;;;;5109676;28;20032;-60
2022/05/05 11:10:45;;;;;;;4.90;2.40;;;19.50;49.80;;;;;;5109169;27;20055;-59
2022/05/05 11:13:37;;;;;;;5.65;2.72;;;19.50;50.30;;;;;;5115994;27;20077;-59
2022/05/05 11:22:28;;;;;;;5.47;2.90;;;19.70;50.40;;;;;;5106857;28;20034;-62
2022/05/05 11:24:53;;;;;;;5.78;2.97;;;19.80;50.20;;;;;;5099870;27;20050;-59
2022/05/05 11:27:24;;;;;;;6.30;3.10;;;19.80;50.20;;;;;;5092945;27;20031;-59
2022/05/05 11:29:57;;;;;;;2.92;1.95;;;19.80;49.30;;;;;;5109536;27;20044;-62
2022/05/05 11:32:29;;;;;;;1.90;1.50;;;19.80;48.60;;;;;;5094255;28;20019;-58
2022/05/05 11:34:55;;;;;;;1.92;1.70;;;19.90;48.90;;;;;;5109428;28;20066;-59
2022/05/05 11:37:25;;;;;;;2.55;1.70;;;20.00;48.50;;;;;;5100973;27;20114;-62
2022/05/05 11:39:50;;;;;;;3.08;2.35;;;20.10;49.00;;;;;;5108187;27;20288;-62
2022/05/05 11:42:17;;;;;;;3.00;1.90;;;20.10;47.40;;;;;;5107326;27;20028;-62
2022/05/05 11:44:45;;;;;;;2.35;1.70;;;20.20;47.70;;;;;;5109498;28;20070;-62
2022/05/05 11:47:14;;;;;;;2.60;1.80;;;20.30;47.60;;;;;;5109918;28;20048;-59
2022/05/05 11:49:43;;;;;;;3.53;2.33;;;20.40;47.10;;;;;;5087554;27;20062;-59
2022/05/05 11:52:29;;;;;;;3.17;2.45;;;20.50;47.10;;;;;;5106543;27;20036;-59
2022/05/05 11:54:57;;;;;;;3.80;2.05;;;20.50;46.80;;;;;;5099483;28;20040;-59
2022/05/05 11:57:33;;;;;;;3.20;2.30;;;20.50;46.40;;;;;;5102070;28;20671;-59
2022/05/05 12:02:43;;;;;;;3.75;1.90;;;20.50;46.90;;;;;;5095807;27;20174;-59
2022/05/05 12:05:09;;;;;;;2.17;1.92;;;20.60;46.80;;;;;;5106689;28;20057;-59
2022/05/05 12:07:35;;;;;;;2.97;1.92;;;20.70;46.50;;;;;;5107502;28;20043;-59
2022/05/05 12:10:07;;;;;;;3.58;1.77;;;20.80;46.50;;;;;;5081274;28;20030;-59
2022/05/05 12:12:34;;;;;;;2.47;1.83;;;20.80;46.50;;;;;;5108374;27;20031;-59
2022/05/05 12:15:02;;;;;;;2.92;1.80;;;20.90;46.00;;;;;;5110570;27;20248;-59
2022/05/05 12:17:39;;;;;;;4.97;2.47;;;21.10;46.00;;;;;;5085843;28;20024;-59
2022/05/05 12:20:07;;;;;;;2.58;1.88;;;21.30;44.90;;;;;;5108400;27;20034;-59
2022/05/05 12:22:38;;;;;;;2.88;2.05;;;21.30;44.60;;;;;;5108492;27;20047;-59
2022/05/05 12:25:15;;;;;;;2.85;1.88;;;21.30;45.00;;;;;;5090201;28;20036;-59
2022/05/05 12:27:42;;;;;;;5.20;2.40;;;21.40;44.50;;;;;;5086921;27;20036;-59
2022/05/05 12:30:09;;;;;;;4.18;2.33;;;21.50;44.60;;;;;;5079668;28;20028;-59
2022/05/05 12:32:35;;;;;;;3.15;2.22;;;21.50;43.80;;;;;;5104977;28;20473;-59
2022/05/05 12:35:11;;;;;;;5.72;2.88;;;21.50;44.20;;;;;;5089375;28;20059;-59
2022/05/05 12:37:39;;;;;;;2.22;1.95;;;21.50;44.00;;;;;;5098579;28;20181;-59
2022/05/05 12:40:07;;;;;;;2.85;1.63;;;21.50;43.90;;;;;;5108749;28;20027;-59
2022/05/05 12:42:47;;;;;;;2.05;1.50;;;21.60;44.30;;;;;;5097823;28;20169;-59
2022/05/05 12:45:29;;;;;;;2.90;1.83;;;21.90;44.70;;;;;;5096067;28;20047;-58
2022/05/05 12:47:58;;;;;;;3.15;1.83;;;22.10;43.50;;;;;;5105981;28;20075;-61
2022/05/05 12:50:35;;;;;;;5.95;2.60;;;22.00;43.70;;;;;;5078940;28;20042;-62
2022/05/05 13:01:44;;;;;;;4.50;2.78;;;21.80;44.70;;;;;;5094891;28;20047;-62
2022/05/05 13:04:14;;;;;;;4.10;2.40;;;21.90;44.80;;;;;;5093889;28;20035;-59
2022/05/05 13:06:41;;;;;;;3.67;2.67;;;22.00;44.80;;;;;;5098175;28;20046;-59
2022/05/05 13:09:09;;;;;;;5.28;2.03;;;22.10;44.30;;;;;;5095626;28;20027;-59
2022/05/05 13:11:36;;;;;;;5.78;3.40;;;22.10;44.40;;;;;;5107914;28;20043;-59
2022/05/05 13:14:02;;;;;;;4.28;2.25;;;22.20;44.50;;;;;;5104985;28;20059;-61
2022/05/05 13:16:29;;;;;;;5.97;1.95;;;22.40;44.20;;;;;;5088317;28;20066;-58
2022/05/05 13:18:57;;;;;;;4.93;2.67;;;22.50;44.20;;;;;;5111139;28;20028;-59
2022/05/05 13:21:23;;;;;;;5.75;2.80;;;22.60;43.80;;;;;;5106905;28;20035;-59
2022/05/05 13:23:49;;;;;;;2.50;2.28;;;22.60;43.60;;;;;;5097958;28;20028;-59
2022/05/05 13:26:15;;;;;;;2.25;1.88;;;22.70;43.60;;;;;;5084316;28;20363;-59
2022/05/05 13:28:40;;;;;;;4.00;2.70;;;22.70;43.50;;;;;;5099050;28;20044;-59
2022/05/05 13:31:07;;;;;;;4.72;3.50;;;22.70;42.90;;;;;;5108451;28;20024;-62
2022/05/05 13:33:32;;;;;;;3.58;2.35;;;22.50;42.60;;;;;;5094162;28;20019;-62
2022/05/05 13:35:59;;;;;;;4.07;2.53;;;22.40;43.40;;;;;;5085921;28;20160;-62
2022/05/05 13:38:26;;;;;;;4.32;2.22;;;22.50;43.50;;;;;;5098643;28;20466;-62